Time;durP1;ratioP1;P1;durP2;ratioP2;P2;SDS_P1;SDS_P2;PMS_P1;PMS_P2;Temp;Humidity;BMP_temperature;BMP_pressure;BME280_temperature;BME280_humidity;BME280_pressure;Samples;Min_cycle;Max_cycle;Signal;HPM_P1;HPM_P2
2021/03/24 00:00:12;;;;;;;1.97;1.10;;;12.80;99.90;;;;;;4940074;29;20238;-92
2021/03/24 00:02:43;;;;;;;3.20;1.40;;;12.60;99.90;;;;;;4935750;29;20196;-92
2021/03/24 00:05:16;;;;;;;3.33;1.10;;;12.50;99.90;;;;;;4929174;29;20213;-92
2021/03/24 00:07:47;;;;;;;1.77;1.00;;;12.60;99.90;;;;;;4923175;29;20243;-92
2021/03/24 00:10:27;;;;;;;1.53;1.00;;;12.40;99.90;;;;;;4923200;29;20277;-91
2021/03/24 00:13:01;;;;;;;1.30;1.10;;;12.60;99.90;;;;;;4924283;29;20270;-92
2021/03/24 00:15:33;;;;;;;3.73;1.30;;;12.70;99.90;;;;;;4923055;29;20208;-90
2021/03/24 00:18:05;;;;;;;2.93;1.47;;;12.40;99.90;;;;;;4927253;29;20215;-90
2021/03/24 00:20:40;;;;;;;2.47;1.50;;;12.40;99.90;;;;;;4921737;29;20222;-91
2021/03/24 00:23:11;;;;;;;1.43;1.07;;;12.40;99.90;;;;;;4922258;29;20224;-91
2021/03/24 00:25:44;;;;;;;1.17;1.00;;;12.30;99.90;;;;;;4923211;29;20240;-92
2021/03/24 00:28:16;;;;;;;3.53;1.17;;;12.00;99.90;;;;;;4928341;29;20216;-91
2021/03/24 00:30:49;;;;;;;2.73;1.07;;;12.00;99.90;;;;;;4930862;29;20256;-92
2021/03/24 00:33:24;;;;;;;4.93;1.50;;;12.20;99.90;;;;;;4938883;29;20240;-91
2021/03/24 00:35:55;;;;;;;3.13;1.20;;;12.20;99.90;;;;;;4938156;29;20229;-92
2021/03/24 00:38:26;;;;;;;4.50;1.30;;;12.40;99.90;;;;;;4937250;29;20229;-93
2021/03/24 00:41:00;;;;;;;1.93;1.00;;;12.10;99.90;;;;;;4933221;29;20221;-95
2021/03/24 00:43:31;;;;;;;3.17;1.40;;;12.20;99.90;;;;;;4933405;29;20224;-94
2021/03/24 00:46:02;;;;;;;2.20;1.03;;;12.20;99.90;;;;;;4930894;29;20217;-92
2021/03/24 00:48:35;;;;;;;2.23;1.10;;;12.40;99.90;;;;;;4927377;29;20272;-92
2021/03/24 00:51:07;;;;;;;3.33;1.20;;;12.40;99.90;;;;;;4926599;29;20278;-93
2021/03/24 00:53:37;;;;;;;2.13;1.27;;;12.40;99.90;;;;;;4923204;29;20235;-92
2021/03/24 00:56:10;;;;;;;3.00;1.40;;;12.10;99.90;;;;;;4923669;29;20220;-93
2021/03/24 00:58:41;;;;;;;3.03;1.43;;;12.00;99.90;;;;;;4922025;29;20277;-93
2021/03/24 01:01:12;;;;;;;2.13;1.30;;;12.00;99.90;;;;;;4922482;29;20304;-94
2021/03/24 01:03:42;;;;;;;2.73;1.33;;;11.90;99.90;;;;;;4921125;29;20212;-93
2021/03/24 01:06:13;;;;;;;3.67;1.57;;;11.60;99.90;;;;;;4921459;29;20666;-93
2021/03/24 01:08:43;;;;;;;4.27;1.80;;;11.60;99.90;;;;;;4922615;29;20205;-93
2021/03/24 01:11:16;;;;;;;4.13;1.40;;;11.50;99.90;;;;;;4922247;29;20638;-94
2021/03/24 01:13:47;;;;;;;2.20;1.47;;;11.40;99.90;;;;;;4922222;29;20209;-94
2021/03/24 01:16:17;;;;;;;3.30;2.13;;;11.40;99.90;;;;;;4922437;29;20217;-93
2021/03/24 01:18:49;;;;;;;4.37;1.70;;;11.30;99.90;;;;;;4921499;29;20312;-93
2021/03/24 01:21:21;;;;;;;3.40;1.53;;;11.20;99.90;;;;;;4921693;29;20209;-93
2021/03/24 01:23:52;;;;;;;2.53;0.97;;;11.10;99.90;;;;;;4921651;29;20212;-92
2021/03/24 01:26:25;;;;;;;3.43;1.00;;;11.00;99.90;;;;;;4921862;29;20626;-93
2021/03/24 01:31:45;;;;;;;2.67;1.10;;;10.70;99.90;;;;;;4922247;29;20216;-93
2021/03/24 01:34:17;;;;;;;1.53;1.17;;;10.60;99.90;;;;;;4928287;29;20208;-91
2021/03/24 01:36:48;;;;;;;1.33;0.87;;;10.50;99.90;;;;;;4934081;29;20219;-90
2021/03/24 01:39:19;;;;;;;3.00;1.00;;;10.40;99.90;;;;;;4930995;29;20268;-91
2021/03/24 01:41:53;;;;;;;2.97;1.07;;;10.30;99.90;;;;;;4932721;29;20220;-91
2021/03/24 01:44:24;;;;;;;2.60;1.03;;;10.30;99.90;;;;;;4931327;29;20213;-93
2021/03/24 01:46:55;;;;;;;1.17;0.80;;;10.20;99.90;;;;;;4925913;29;20295;-93
2021/03/24 01:49:29;;;;;;;2.17;0.70;;;10.20;99.90;;;;;;4921556;29;20228;-93
2021/03/24 01:52:03;;;;;;;2.97;0.87;;;10.20;99.90;;;;;;4924033;29;20282;-91
2021/03/24 01:54:39;;;;;;;2.57;0.90;;;10.10;99.90;;;;;;4920826;29;20666;-93
2021/03/24 01:57:16;;;;;;;3.57;1.30;;;10.10;99.90;;;;;;4923717;29;20224;-92
2021/03/24 01:59:49;;;;;;;1.20;0.73;;;10.10;99.90;;;;;;4925372;29;20737;-93
2021/03/24 02:02:23;;;;;;;2.90;0.80;;;10.00;99.90;;;;;;4930238;29;20219;-92
2021/03/24 02:04:54;;;;;;;3.57;1.00;;;10.00;99.90;;;;;;4930532;29;20205;-93
2021/03/24 02:07:45;;;;;;;2.33;0.83;;;9.90;99.90;;;;;;4931233;29;20205;-94
2021/03/24 02:10:20;;;;;;;2.03;0.93;;;9.90;99.90;;;;;;4922259;29;20205;-95
2021/03/24 02:12:58;;;;;;;2.33;0.90;;;9.90;99.90;;;;;;4922319;29;20220;-94
2021/03/24 02:15:33;;;;;;;2.70;0.70;;;9.90;99.90;;;;;;4925278;29;20236;-92
2021/03/24 02:18:08;;;;;;;2.33;0.97;;;9.90;99.90;;;;;;4922796;28;20238;-93
2021/03/24 02:20:45;;;;;;;2.43;0.90;;;9.80;99.90;;;;;;4939920;29;20231;-93
2021/03/24 02:23:31;;;;;;;1.87;1.07;;;9.80;99.90;;;;;;4936321;29;20213;-92
2021/03/24 02:26:10;;;;;;;2.33;0.90;;;9.70;99.90;;;;;;4917473;29;20220;-93
2021/03/24 02:28:45;;;;;;;1.80;0.80;;;9.60;99.90;;;;;;4909337;29;20217;-93
2021/03/24 02:31:18;;;;;;;5.87;1.10;;;9.60;99.90;;;;;;4916095;29;20694;-94
2021/03/24 02:33:54;;;;;;;5.63;1.20;;;9.60;99.90;;;;;;4908402;29;20237;-94
2021/03/24 02:36:29;;;;;;;2.67;1.00;;;9.50;99.90;;;;;;4902969;29;20217;-94
2021/03/24 02:39:06;;;;;;;1.10;0.90;;;9.50;99.90;;;;;;4900669;29;20340;-93
2021/03/24 02:41:38;;;;;;;4.17;1.00;;;9.50;99.90;;;;;;4902883;29;20209;-93
2021/03/24 02:44:15;;;;;;;1.40;0.97;;;9.50;99.90;;;;;;4901825;29;20233;-94
2021/03/24 02:46:46;;;;;;;1.80;1.00;;;9.40;99.90;;;;;;4902559;29;20611;-92
2021/03/24 02:49:18;;;;;;;2.37;1.03;;;9.40;99.90;;;;;;4908452;29;20281;-93
2021/03/24 02:51:54;;;;;;;1.80;1.10;;;9.40;99.90;;;;;;4909554;29;20253;-93
2021/03/24 02:54:29;;;;;;;1.00;0.90;;;9.30;99.90;;;;;;4910019;29;20293;-91
2021/03/24 02:57:06;;;;;;;1.73;1.00;;;9.20;99.90;;;;;;4910404;29;20678;-92
2021/03/24 02:59:39;;;;;;;2.67;0.90;;;9.10;99.90;;;;;;4909854;29;20269;-93
2021/03/24 03:02:18;;;;;;;2.43;1.20;;;9.10;99.90;;;;;;4911624;29;20217;-92
2021/03/24 03:05:05;;;;;;;2.20;1.10;;;9.00;99.90;;;;;;4910347;29;20213;-92
2021/03/24 03:07:40;;;;;;;2.20;0.90;;;9.10;99.90;;;;;;4906908;29;20232;-92
2021/03/24 03:10:15;;;;;;;6.50;1.00;;;9.10;99.90;;;;;;4904320;29;20217;-92
2021/03/24 03:12:56;;;;;;;1.63;1.00;;;9.00;99.90;;;;;;4904251;29;20339;-93
2021/03/24 03:15:33;;;;;;;1.80;1.00;;;9.00;99.90;;;;;;4903753;29;20214;-92
2021/03/24 03:18:11;;;;;;;1.57;1.10;;;9.00;99.90;;;;;;4901894;29;20269;-93
2021/03/24 03:20:47;;;;;;;2.73;1.10;;;9.00;99.90;;;;;;4901252;29;20244;-93
2021/03/24 03:23:22;;;;;;;2.33;1.20;;;9.00;99.90;;;;;;4902827;29;20214;-93
2021/03/24 03:26:02;;;;;;;2.67;0.90;;;9.00;99.90;;;;;;4902590;29;20628;-92
2021/03/24 03:28:36;;;;;;;3.73;1.00;;;9.00;99.90;;;;;;4902530;29;20210;-94
2021/03/24 03:31:23;;;;;;;2.07;1.20;;;9.00;99.90;;;;;;4910204;29;20273;-94
2021/03/24 03:33:55;;;;;;;2.10;1.23;;;9.00;99.90;;;;;;4909394;29;20225;-92
2021/03/24 03:36:30;;;;;;;1.30;1.10;;;9.00;99.90;;;;;;4908738;29;20210;-93
2021/03/24 03:39:08;;;;;;;2.87;1.10;;;9.10;99.90;;;;;;4908528;29;20233;-93
2021/03/24 03:41:40;;;;;;;3.57;1.20;;;9.10;99.90;;;;;;4904961;29;20241;-93
2021/03/24 03:44:14;;;;;;;2.87;1.17;;;9.10;99.90;;;;;;4905265;29;20210;-92
2021/03/24 03:46:50;;;;;;;3.20;1.10;;;9.00;99.90;;;;;;4904493;29;20201;-93
2021/03/24 03:49:23;;;;;;;3.53;1.10;;;9.00;99.90;;;;;;4903219;29;20217;-91
2021/03/24 03:52:07;;;;;;;3.67;1.10;;;9.00;99.90;;;;;;4909899;29;20201;-92
2021/03/24 03:55:00;;;;;;;1.40;0.80;;;9.00;99.90;;;;;;4924731;29;20212;-92
2021/03/24 03:57:36;;;;;;;2.60;1.17;;;9.00;99.90;;;;;;4926179;29;20227;-92
2021/03/24 04:00:13;;;;;;;2.50;1.20;;;9.00;99.90;;;;;;4923190;29;20284;-92
2021/03/24 04:02:54;;;;;;;4.23;1.30;;;9.00;99.90;;;;;;4928491;28;20217;-92
2021/03/24 04:05:29;;;;;;;3.30;1.60;;;9.00;99.90;;;;;;4928406;29;20299;-93
2021/03/24 04:08:04;;;;;;;4.73;2.63;;;9.00;99.90;;;;;;4933265;29;20213;-93
2021/03/24 04:10:38;;;;;;;7.80;3.93;;;8.90;99.90;;;;;;4941838;28;20229;-92
2021/03/24 04:13:13;;;;;;;5.93;5.17;;;8.90;99.90;;;;;;4941859;28;20219;-93
2021/03/24 04:15:43;;;;;;;8.50;6.33;;;8.90;99.90;;;;;;4942057;28;20712;-91
2021/03/24 04:18:21;;;;;;;8.57;6.73;;;9.00;99.90;;;;;;4940712;29;20208;-93
2021/03/24 04:20:57;;;;;;;7.10;5.30;;;9.00;99.90;;;;;;4940970;29;20248;-92
2021/03/24 04:23:34;;;;;;;8.17;4.73;;;8.90;99.90;;;;;;4939940;28;20204;-92
2021/03/24 04:26:10;;;;;;;4.77;3.83;;;8.90;99.90;;;;;;4929055;29;20209;-90
2021/03/24 04:28:45;;;;;;;5.03;3.77;;;8.90;99.90;;;;;;4931866;29;20236;-92
2021/03/24 04:31:20;;;;;;;4.87;3.43;;;8.90;99.90;;;;;;4931693;29;20217;-90
2021/03/24 04:33:53;;;;;;;4.00;3.00;;;8.90;99.90;;;;;;4933634;29;20208;-89
2021/03/24 04:36:32;;;;;;;3.00;2.70;;;8.90;99.90;;;;;;4931803;29;20292;-92
2021/03/24 04:39:10;;;;;;;2.87;1.90;;;8.90;99.90;;;;;;4925094;29;20232;-93
2021/03/24 04:41:47;;;;;;;3.97;2.43;;;8.90;99.90;;;;;;4937053;29;20228;-93
2021/03/24 04:44:26;;;;;;;2.40;1.87;;;8.90;99.90;;;;;;4941583;29;20196;-92
2021/03/24 04:47:06;;;;;;;4.70;1.80;;;8.80;99.90;;;;;;4941196;29;20212;-90
2021/03/24 04:49:57;;;;;;;3.50;1.70;;;8.80;99.90;;;;;;4936291;29;20200;-93
2021/03/24 04:52:30;;;;;;;2.23;1.70;;;8.80;99.90;;;;;;4932356;29;20212;-93
2021/03/24 04:55:06;;;;;;;3.87;1.53;;;8.70;99.90;;;;;;4923710;29;20216;-94
2021/03/24 04:57:38;;;;;;;2.10;1.53;;;8.70;99.90;;;;;;4926695;29;20273;-92
2021/03/24 05:00:23;;;;;;;2.77;1.40;;;8.70;99.90;;;;;;4931235;29;20257;-92
2021/03/24 05:02:59;;;;;;;2.70;1.43;;;8.70;99.90;;;;;;4930495;29;20213;-93
2021/03/24 05:05:34;;;;;;;4.03;1.40;;;8.60;99.90;;;;;;4929317;29;20291;-92
2021/03/24 05:08:14;;;;;;;4.97;1.57;;;8.60;99.90;;;;;;4928287;29;20236;-93
2021/03/24 05:10:47;;;;;;;3.20;1.30;;;8.50;99.90;;;;;;4929759;29;20213;-93
2021/03/24 05:13:25;;;;;;;4.03;1.60;;;8.60;99.90;;;;;;4904557;29;20658;-93
2021/03/24 05:15:59;;;;;;;2.67;1.30;;;8.50;99.90;;;;;;4904040;29;20264;-92
2021/03/24 05:18:31;;;;;;;2.67;1.30;;;8.50;99.90;;;;;;4904271;29;20304;-93
2021/03/24 05:21:13;;;;;;;3.10;1.40;;;8.50;99.90;;;;;;4906796;29;20248;-92
2021/03/24 05:23:46;;;;;;;3.53;1.70;;;8.50;99.90;;;;;;4903248;29;20238;-92
2021/03/24 05:26:28;;;;;;;4.80;1.60;;;8.50;99.90;;;;;;4913489;29;20209;-93
2021/03/24 05:29:06;;;;;;;2.67;1.43;;;8.50;99.90;;;;;;4909153;29;20205;-93
2021/03/24 05:31:43;;;;;;;4.27;1.53;;;8.50;99.90;;;;;;4921867;29;20227;-93
2021/03/24 05:34:18;;;;;;;2.77;1.40;;;8.50;99.90;;;;;;4922400;29;20262;-93
2021/03/24 05:36:53;;;;;;;3.67;1.70;;;8.50;99.90;;;;;;4921023;29;20260;-94
2021/03/24 05:39:28;;;;;;;3.70;1.80;;;8.50;99.90;;;;;;4920311;29;20334;-93
2021/03/24 05:42:22;;;;;;;2.10;1.57;;;8.50;99.90;;;;;;4921978;29;20324;-94
2021/03/24 05:45:23;;;;;;;2.73;1.57;;;8.50;99.90;;;;;;4922512;29;20665;-93
2021/03/24 05:48:21;;;;;;;2.57;1.37;;;8.50;99.90;;;;;;4922778;29;20209;-92
2021/03/24 05:51:15;;;;;;;1.93;1.37;;;8.40;99.90;;;;;;4923579;29;20261;-92
2021/03/24 05:54:27;;;;;;;3.00;1.97;;;8.30;99.90;;;;;;4920333;29;20208;-91
2021/03/24 05:57:24;;;;;;;4.63;1.80;;;8.40;99.90;;;;;;4898218;29;20733;-92
2021/03/24 06:00:11;;;;;;;3.83;1.70;;;8.40;99.90;;;;;;4919810;29;20244;-93
2021/03/24 06:02:50;;;;;;;2.27;1.77;;;8.40;99.90;;;;;;4920893;29;20233;-92
2021/03/24 06:05:27;;;;;;;2.50;1.70;;;8.40;99.90;;;;;;4919530;29;20209;-93
2021/03/24 06:08:40;;;;;;;3.53;1.53;;;8.40;99.90;;;;;;4920931;29;20220;-94
2021/03/24 06:11:31;;;;;;;1.87;1.50;;;8.40;99.90;;;;;;4894534;29;20212;-93
2021/03/24 06:14:31;;;;;;;2.70;1.63;;;8.40;99.90;;;;;;4920039;29;20664;-93
2021/03/24 06:17:26;;;;;;;2.50;1.50;;;8.40;99.90;;;;;;4919940;29;20228;-92
2021/03/24 06:20:04;;;;;;;5.47;1.47;;;8.40;99.90;;;;;;4922351;29;20279;-92
2021/03/24 06:22:47;;;;;;;2.97;1.60;;;8.40;99.90;;;;;;4922199;29;20212;-92
2021/03/24 06:25:37;;;;;;;5.20;2.00;;;8.40;99.90;;;;;;4928492;29;20220;-92
2021/03/24 06:28:31;;;;;;;4.63;1.70;;;8.40;99.90;;;;;;4922152;29;20286;-94
2021/03/24 06:31:35;;;;;;;4.23;1.60;;;8.30;99.90;;;;;;4921592;29;20263;-93
2021/03/24 06:34:54;;;;;;;3.63;1.83;;;8.30;99.90;;;;;;4924496;29;20630;-93
2021/03/24 06:37:48;;;;;;;2.57;1.80;;;8.30;99.90;;;;;;4920400;29;20213;-94
2021/03/24 06:40:30;;;;;;;3.33;1.53;;;8.20;99.90;;;;;;4919630;29;20236;-93
2021/03/24 06:43:25;;;;;;;3.13;1.93;;;8.10;99.90;;;;;;4920752;29;20238;-92
2021/03/24 06:46:09;;;;;;;3.73;2.13;;;8.10;99.90;;;;;;4913170;29;20642;-93
2021/03/24 06:49:19;;;;;;;2.13;1.27;;;8.10;99.90;;;;;;4919679;29;20224;-93
2021/03/24 06:52:28;;;;;;;2.53;1.90;;;8.10;99.90;;;;;;4920317;29;20307;-92
2021/03/24 06:55:33;;;;;;;4.73;2.07;;;8.00;99.90;;;;;;4900668;29;20214;-92
2021/03/24 06:58:42;;;;;;;3.20;1.87;;;8.00;99.90;;;;;;4900684;29;20240;-92
2021/03/24 07:01:51;;;;;;;4.30;1.87;;;8.00;99.90;;;;;;4913063;29;20240;-91
2021/03/24 07:04:48;;;;;;;3.97;2.10;;;8.00;99.90;;;;;;4920253;29;20215;-92
2021/03/24 07:07:35;;;;;;;2.53;1.67;;;8.00;99.90;;;;;;4916504;29;20212;-93
2021/03/24 07:10:19;;;;;;;2.67;1.80;;;8.10;99.90;;;;;;4906277;29;20551;-93
2021/03/24 07:13:11;;;;;;;3.40;2.03;;;8.10;99.90;;;;;;4924326;29;20238;-93
2021/03/24 07:15:51;;;;;;;3.80;1.87;;;8.10;99.90;;;;;;4931578;29;20242;-91
2021/03/24 07:18:45;;;;;;;5.20;1.63;;;8.10;99.90;;;;;;4931893;29;20450;-91
2021/03/24 07:21:54;;;;;;;3.63;1.87;;;8.10;99.90;;;;;;4927996;29;20267;-91
2021/03/24 07:25:03;;;;;;;4.27;1.53;;;8.00;99.90;;;;;;4895334;29;20248;-91
2021/03/24 07:28:06;;;;;;;3.63;1.80;;;8.00;99.90;;;;;;4911910;29;20276;-93
2021/03/24 07:30:48;;;;;;;3.53;1.60;;;8.00;99.90;;;;;;4894179;29;20224;-93
2021/03/24 07:33:35;;;;;;;2.57;1.70;;;7.90;99.90;;;;;;4890775;29;20628;-93
2021/03/24 07:36:26;;;;;;;3.73;2.00;;;7.90;99.90;;;;;;4904391;29;20208;-93
2021/03/24 07:39:30;;;;;;;3.73;2.10;;;7.90;99.90;;;;;;4904212;29;20214;-93
2021/03/24 07:42:40;;;;;;;4.03;2.50;;;7.90;99.90;;;;;;4898016;29;20208;-94
2021/03/24 07:45:41;;;;;;;3.30;2.30;;;7.90;99.90;;;;;;4902649;29;20588;-93
2021/03/24 07:48:48;;;;;;;5.40;2.90;;;7.90;99.90;;;;;;4911522;29;20239;-92
2021/03/24 07:51:32;;;;;;;6.83;3.33;;;7.90;99.90;;;;;;4910384;29;20619;-92
2021/03/24 07:54:18;;;;;;;6.43;2.97;;;7.90;99.90;;;;;;4923586;29;20234;-92
2021/03/24 07:57:02;;;;;;;6.23;3.13;;;7.80;99.90;;;;;;4926007;29;20225;-92
2021/03/24 07:59:47;;;;;;;6.43;2.50;;;7.80;99.90;;;;;;4922167;29;20724;-92
2021/03/24 08:02:37;;;;;;;4.33;2.70;;;7.80;99.90;;;;;;4922574;29;20216;-92
2021/03/24 08:05:28;;;;;;;5.07;2.63;;;7.70;99.90;;;;;;4922631;29;20216;-91
2021/03/24 08:08:10;;;;;;;5.00;2.40;;;7.70;99.90;;;;;;4921136;29;20221;-96
2021/03/24 08:10:52;;;;;;;4.93;2.70;;;7.70;99.90;;;;;;4922855;29;20217;-92
2021/03/24 08:13:57;;;;;;;5.70;2.43;;;7.70;99.90;;;;;;4921626;29;20696;-93
2021/03/24 08:16:59;;;;;;;5.73;2.63;;;7.70;99.90;;;;;;4912497;29;20213;-91
2021/03/24 08:19:59;;;;;;;5.30;2.60;;;7.70;99.90;;;;;;4926915;29;20217;-92
2021/03/24 08:22:54;;;;;;;3.53;2.60;;;7.70;99.90;;;;;;4910137;29;20281;-92
2021/03/24 08:25:42;;;;;;;3.87;2.70;;;7.70;99.90;;;;;;4904012;29;20290;-93
2021/03/24 08:28:34;;;;;;;3.87;2.57;;;7.60;99.90;;;;;;4902994;29;20213;-93
2021/03/24 08:31:42;;;;;;;5.07;2.43;;;7.50;99.90;;;;;;4918264;29;20202;-93
2021/03/24 08:35:03;;;;;;;5.70;2.70;;;7.50;99.90;;;;;;4903281;29;20214;-92
2021/03/24 08:37:55;;;;;;;6.53;2.10;;;7.60;99.90;;;;;;4902797;29;20659;-92
2021/03/24 08:41:00;;;;;;;2.70;1.73;;;7.50;99.90;;;;;;4903021;29;20242;-93
2021/03/24 08:43:51;;;;;;;3.63;1.57;;;7.50;99.90;;;;;;4868739;29;20636;-93
2021/03/24 08:46:28;;;;;;;2.20;1.40;;;7.50;99.90;;;;;;4904044;29;20221;-93
2021/03/24 08:49:03;;;;;;;4.00;1.50;;;7.40;99.90;;;;;;4902662;29;20217;-92
2021/03/24 08:51:53;;;;;;;5.13;1.60;;;7.40;99.90;;;;;;4903528;29;20246;-91
2021/03/24 08:54:57;;;;;;;4.37;1.50;;;7.40;99.90;;;;;;4903683;29;20327;-92
2021/03/24 08:57:57;;;;;;;3.33;1.20;;;7.30;99.90;;;;;;4903054;29;20223;-92
2021/03/24 09:00:57;;;;;;;2.87;1.17;;;7.20;99.90;;;;;;4903262;29;20237;-93
2021/03/24 09:04:05;;;;;;;3.80;1.23;;;7.00;99.90;;;;;;4902056;29;20213;-91
2021/03/24 09:06:48;;;;;;;3.87;1.40;;;7.00;99.90;;;;;;4828139;29;20212;-93
2021/03/24 09:09:35;;;;;;;3.70;1.73;;;6.90;99.90;;;;;;4907436;29;20209;-93
2021/03/24 09:12:12;;;;;;;2.77;1.17;;;6.80;99.90;;;;;;4912707;29;20262;-94
2021/03/24 09:14:46;;;;;;;4.27;1.30;;;6.80;99.90;;;;;;4914740;29;20228;-92
2021/03/24 09:17:37;;;;;;;2.47;1.03;;;6.70;99.90;;;;;;4923306;29;20662;-91
2021/03/24 09:20:44;;;;;;;3.83;1.63;;;6.60;99.90;;;;;;4939873;29;20312;-92
2021/03/24 09:24:05;;;;;;;3.47;1.60;;;6.50;99.90;;;;;;4940835;29;20235;-94
2021/03/24 09:27:22;;;;;;;5.23;1.60;;;6.40;99.90;;;;;;4929197;29;20288;-93
2021/03/24 09:30:37;;;;;;;4.53;1.60;;;6.30;99.90;;;;;;4910997;29;20220;-94
2021/03/24 09:33:37;;;;;;;5.33;1.70;;;6.20;99.90;;;;;;4927275;29;20300;-95
2021/03/24 09:39:18;;;;;;;4.00;1.60;;;6.10;99.90;;;;;;4971965;23;20262;-93
2021/03/24 09:41:57;;;;;;;2.37;1.70;;;6.10;99.90;;;;;;4905818;29;20248;-93
2021/03/24 09:44:36;;;;;;;6.83;1.83;;;6.10;99.90;;;;;;4917526;29;20210;-93
2021/03/24 09:47:22;;;;;;;2.93;1.83;;;6.10;99.90;;;;;;4919294;29;20197;-91
2021/03/24 09:52:52;;;;;;;7.00;2.07;;;6.10;99.90;;;;;;4902764;29;20238;-92
2021/03/24 09:55:28;;;;;;;4.63;2.07;;;6.00;99.90;;;;;;4900851;29;20214;-92
2021/03/24 09:58:28;;;;;;;5.23;2.10;;;6.10;99.90;;;;;;4897139;29;20241;-93
2021/03/24 10:01:07;;;;;;;9.60;2.30;;;6.00;99.90;;;;;;4885103;29;20328;-93
2021/03/24 10:03:47;;;;;;;2.90;1.63;;;6.00;99.90;;;;;;4885815;29;20258;-94
2021/03/24 10:06:26;;;;;;;5.87;1.80;;;6.00;99.90;;;;;;4887183;29;20216;-93
2021/03/24 10:09:10;;;;;;;5.23;1.97;;;6.00;99.90;;;;;;4890007;29;20205;-92
2021/03/24 10:17:53;;;;;;;8.33;2.30;;;6.00;99.90;;;;;;5003660;23;20245;-91
2021/03/24 10:20:29;;;;;;;5.43;2.70;;;6.00;99.90;;;;;;4921908;29;20221;-92
2021/03/24 10:23:04;;;;;;;4.47;2.17;;;6.00;99.90;;;;;;4929849;29;20219;-93
2021/03/24 10:25:43;;;;;;;6.73;2.50;;;6.00;99.90;;;;;;4924075;29;20379;-93
2021/03/24 10:28:20;;;;;;;10.10;2.70;;;6.00;99.90;;;;;;4949921;29;20209;-93
2021/03/24 10:31:01;;;;;;;5.33;2.30;;;6.00;99.90;;;;;;4925135;29;20213;-94
2021/03/24 10:33:39;;;;;;;3.53;1.97;;;6.00;99.90;;;;;;4955043;29;20578;-93
2021/03/24 10:36:23;;;;;;;3.97;2.00;;;6.10;99.90;;;;;;4925282;29;20236;-94
2021/03/24 10:39:00;;;;;;;5.33;2.10;;;6.10;99.90;;;;;;4921992;29;20213;-93
2021/03/24 10:41:52;;;;;;;4.43;1.63;;;6.10;99.90;;;;;;4929299;29;20220;-92
2021/03/24 10:44:31;;;;;;;6.57;2.57;;;6.00;99.90;;;;;;4925259;29;20273;-93
2021/03/24 10:47:17;;;;;;;6.47;2.40;;;6.10;99.90;;;;;;4929526;29;20234;-93
2021/03/24 10:50:14;;;;;;;4.50;2.20;;;6.00;99.90;;;;;;4932283;29;20280;-93
2021/03/24 10:55:34;;;;;;;3.53;1.90;;;6.00;99.90;;;;;;5411165;23;20252;-95
2021/03/24 10:58:25;;;;;;;1.77;1.43;;;6.00;99.90;;;;;;4905793;29;20601;-94
2021/03/24 11:04:19;;;;;;;4.30;1.60;;;6.00;99.90;;;;;;4907800;29;20630;-94
2021/03/24 11:06:56;;;;;;;3.97;1.80;;;6.00;99.90;;;;;;4905293;29;20220;-93
2021/03/24 11:09:46;;;;;;;3.37;1.90;;;6.00;99.90;;;;;;4910060;29;20210;-93
2021/03/24 11:12:33;;;;;;;4.30;1.90;;;6.00;99.90;;;;;;4913523;29;20213;-93
2021/03/24 11:15:22;;;;;;;1.53;1.40;;;5.90;99.90;;;;;;4908787;29;20206;-95
2021/03/24 11:18:05;;;;;;;2.40;1.27;;;5.90;99.90;;;;;;4913795;29;20556;-93
2021/03/24 11:26:05;;;;;;;9.23;3.00;;;5.80;99.90;;;;;;5678818;23;20217;-92
2021/03/24 11:28:42;;;;;;;5.13;2.07;;;5.80;99.90;;;;;;4910340;29;20308;-95
2021/03/24 11:31:18;;;;;;;3.43;2.03;;;5.80;99.90;;;;;;4911520;29;20317;-92
2021/03/24 11:37:32;;;;;;;4.07;2.10;;;5.60;99.90;;;;;;5059916;23;20244;-91
2021/03/24 11:40:13;;;;;;;4.27;1.77;;;5.70;99.90;;;;;;4942323;29;20212;-93
2021/03/24 11:43:22;;;;;;;3.57;1.67;;;5.60;99.90;;;;;;4934380;29;20299;-93
2021/03/24 11:46:09;;;;;;;6.50;2.07;;;5.60;99.90;;;;;;4928978;29;20213;-92
2021/03/24 11:48:57;;;;;;;4.23;2.10;;;5.60;99.90;;;;;;4934147;29;20236;-93
2021/03/24 11:51:56;;;;;;;4.13;1.70;;;5.60;99.90;;;;;;4932392;29;20209;-92
2021/03/24 11:54:36;;;;;;;4.13;1.70;;;5.60;99.90;;;;;;4909354;29;20221;-93
2021/03/24 11:57:32;;;;;;;4.07;1.70;;;5.60;99.90;;;;;;4904499;29;20586;-94
2021/03/24 12:00:26;;;;;;;4.10;1.77;;;5.60;99.90;;;;;;4903126;29;20629;-93
2021/03/24 12:03:11;;;;;;;5.97;1.33;;;5.60;99.90;;;;;;4903647;29;20265;-93
2021/03/24 12:05:50;;;;;;;5.33;1.63;;;5.60;99.90;;;;;;4907708;29;20213;-92
2021/03/24 12:11:53;;;;;;;2.87;1.50;;;5.60;99.90;;;;;;4915114;29;20216;-94
2021/03/24 12:20:51;;;;;;;1.87;1.33;;;5.60;99.90;;;;;;4910548;29;20264;-94
2021/03/24 12:23:24;;;;;;;2.63;1.10;;;5.50;99.90;;;;;;4911403;29;20205;-92
2021/03/24 12:29:03;;;;;;;2.40;1.30;;;5.50;99.90;;;;;;4908945;29;20249;-94
2021/03/24 12:31:49;;;;;;;4.07;1.40;;;5.60;99.90;;;;;;4913126;29;20262;-94
2021/03/24 12:43:11;;;;;;;1.10;0.87;;;5.50;99.90;;;;;;5643115;23;20264;-91
2021/03/24 12:48:38;;;;;;;1.60;1.13;;;5.50;99.90;;;;;;4914115;29;20213;-93
2021/03/24 13:13:52;;;;;;;1.23;0.87;;;5.50;99.90;;;;;;5731603;23;20249;-94
2021/03/24 13:19:43;;;;;;;1.07;0.80;;;5.50;99.90;;;;;;4936579;29;20224;-94
2021/03/24 13:22:37;;;;;;;1.20;1.10;;;5.50;99.90;;;;;;4922744;29;20220;-94
2021/03/24 13:25:39;;;;;;;2.20;1.10;;;5.50;99.90;;;;;;4922208;29;20231;-93
2021/03/24 13:28:29;;;;;;;3.27;0.77;;;5.60;99.90;;;;;;4921163;29;20209;-94
2021/03/24 13:31:12;;;;;;;1.93;0.80;;;5.60;99.90;;;;;;4919439;29;20287;-94
2021/03/24 13:34:03;;;;;;;1.33;0.80;;;5.60;99.90;;;;;;4921164;29;20581;-90
2021/03/24 13:36:41;;;;;;;1.93;0.93;;;5.60;99.90;;;;;;4926694;29;20265;-92
2021/03/24 13:39:45;;;;;;;1.53;0.80;;;5.60;99.90;;;;;;4929738;29;20233;-92
2021/03/24 13:42:34;;;;;;;3.47;1.33;;;5.60;99.90;;;;;;4928556;29;20211;-92
2021/03/24 13:45:18;;;;;;;3.17;1.30;;;5.60;99.90;;;;;;4925506;29;20264;-93
2021/03/24 13:47:56;;;;;;;1.70;0.87;;;5.60;99.90;;;;;;4924503;29;20220;-92
2021/03/24 13:50:32;;;;;;;3.47;1.10;;;5.70;99.90;;;;;;4924348;29;20213;-94
2021/03/24 13:53:07;;;;;;;1.63;0.90;;;5.60;99.90;;;;;;4935997;29;20493;-92
2021/03/24 14:15:15;;;;;;;2.17;0.73;;;5.70;99.90;;;;;;4911500;29;20212;-93
2021/03/24 14:18:16;;;;;;;2.33;1.23;;;5.70;99.90;;;;;;4892099;29;20213;-94
2021/03/24 14:21:09;;;;;;;1.40;1.20;;;5.80;99.90;;;;;;4903198;29;20246;-94
2021/03/24 14:27:02;;;;;;;1.53;0.90;;;5.70;99.90;;;;;;4909775;29;20269;-94
2021/03/24 14:29:50;;;;;;;1.73;0.90;;;5.70;99.90;;;;;;4913202;29;20213;-93
2021/03/24 14:32:51;;;;;;;2.50;1.10;;;5.80;99.90;;;;;;4907342;29;20276;-94
2021/03/24 14:35:49;;;;;;;2.80;1.00;;;5.70;99.90;;;;;;4911855;29;20212;-93
2021/03/24 14:38:41;;;;;;;3.27;1.20;;;5.70;99.90;;;;;;4904389;29;20214;-93
2021/03/24 14:41:22;;;;;;;3.13;0.87;;;5.70;99.90;;;;;;4910891;29;20252;-92
2021/03/24 14:44:22;;;;;;;1.60;1.00;;;5.70;99.90;;;;;;4902773;29;20224;-94
2021/03/24 14:47:24;;;;;;;2.07;1.27;;;5.80;99.90;;;;;;4904047;29;20209;-93
2021/03/24 14:50:42;;;;;;;1.73;0.90;;;5.70;99.90;;;;;;4906320;29;20224;-93
2021/03/24 14:53:48;;;;;;;1.60;1.10;;;5.70;99.90;;;;;;4905091;29;20213;-93
2021/03/24 14:59:43;;;;;;;4.00;1.10;;;5.70;99.90;;;;;;4888463;29;20215;-93
2021/03/24 15:02:35;;;;;;;1.20;0.80;;;5.70;99.90;;;;;;4908534;29;20268;-94
2021/03/24 15:05:37;;;;;;;3.40;1.37;;;5.70;99.90;;;;;;4913262;29;20257;-93
2021/03/24 15:08:29;;;;;;;1.90;0.67;;;5.80;99.90;;;;;;4912434;29;20213;-93
2021/03/24 15:11:32;;;;;;;1.93;0.90;;;5.80;99.90;;;;;;4915484;29;20237;-95
2021/03/24 15:14:13;;;;;;;1.73;1.00;;;5.80;99.90;;;;;;4909096;29;20277;-94
2021/03/24 15:20:36;;;;;;;1.90;0.80;;;5.80;99.90;;;;;;4913925;29;20241;-92
2021/03/24 15:23:39;;;;;;;2.33;1.10;;;5.90;99.90;;;;;;4918209;29;20214;-92
2021/03/24 15:26:37;;;;;;;0.60;0.57;;;5.90;99.90;;;;;;4904157;29;20229;-94
2021/03/24 15:29:35;;;;;;;2.67;0.90;;;5.90;99.90;;;;;;4916168;29;20198;-92
2021/03/24 15:32:15;;;;;;;2.80;1.03;;;6.00;99.90;;;;;;4920781;29;20236;-91
2021/03/24 15:35:06;;;;;;;3.97;0.80;;;6.00;99.90;;;;;;4922760;29;20194;-93
2021/03/24 15:40:41;;;;;;;1.10;0.80;;;6.00;99.90;;;;;;4942913;23;20348;-93
2021/03/24 15:43:36;;;;;;;2.53;0.60;;;6.00;99.90;;;;;;4909082;29;20217;-91
2021/03/24 15:46:30;;;;;;;1.77;1.00;;;6.10;99.90;;;;;;4909867;29;20225;-94
2021/03/24 15:52:05;;;;;;;1.37;1.00;;;6.10;99.90;;;;;;4918807;29;20209;-91
2021/03/24 15:54:53;;;;;;;2.20;1.00;;;6.10;99.90;;;;;;4915516;29;20212;-90
2021/03/24 15:57:53;;;;;;;0.93;0.70;;;6.10;99.90;;;;;;4916081;29;20221;-90
2021/03/24 16:00:41;;;;;;;1.93;0.77;;;6.10;99.90;;;;;;4912536;29;20242;-93
2021/03/24 16:03:54;;;;;;;6.73;0.90;;;6.10;99.90;;;;;;4894249;29;20210;-93
2021/03/24 16:07:10;;;;;;;1.10;0.73;;;6.10;99.90;;;;;;4896225;29;20203;-92
2021/03/24 16:10:21;;;;;;;1.00;0.70;;;6.10;99.90;;;;;;4891537;29;20214;-94
2021/03/24 16:13:11;;;;;;;1.53;0.90;;;6.10;99.90;;;;;;4904879;29;20232;-93
2021/03/24 16:16:06;;;;;;;1.47;0.90;;;6.10;99.90;;;;;;4906518;29;20205;-95
2021/03/24 16:19:07;;;;;;;1.27;0.60;;;6.20;99.90;;;;;;4907609;29;20210;-93